LFBT/LDE METAR and TAF weather

Enter ICAO airport designator
Station Type Date Time Source
LFBT METAR 2019/10/23 13:00 UTC NOAA

LFBT 231300Z AUTO 29007KT 260V320 9999 BKN004 BKN011 OVC019 13/12 Q1005 TEMPO 4000 SHRA BKN014TCU


Station Type Date Time Source
LFBT Decoded METAR 2019/10/23 13:00 UTC NOAA

Tarbes Ossun Lourdes, France (LFBT) 43-11N 000-00W 363M
Oct 23, 2019 - 09:00 AM EDT / 2019.10.23 1300 UTC
Wind: from the WNW (290 degrees) at 8 MPH (7 KT) (direction variable):0
Visibility: greater than 7 mile(s):0
Sky conditions: overcast
Weather: Towering cumulus clouds observed
Temperature: 55 F (13 C)
Dew Point: 53 F (12 C)
Relative Humidity: 93%
Pressure (altimeter): 29.68 in. Hg (1005 hPa)
ob: LFBT 231300Z AUTO 29007KT 260V320 9999 BKN004 BKN011 OVC019 13/12 Q1005 TEMPO 4000 SHRA BKN014TCU
cycle: 13

Station Type Date Time Source
LFBT TAF 2019/10/23 12:45 UTC NOAA

TAF LFBT 231100Z 2312/2412 21010KT 9999 BKN015 PROB30
TEMPO 2314/2318 4000 SHRA BKN014TCU
BECMG 2320/2322 CAVOK
BECMG 2404/2405 27010KT BKN040

Example: see airport list